sensor_id;sensor_type;location;lat;lon;timestamp;P1;durP1;ratioP1;P2;durP2;ratioP2
6358;SDS011;3212;51.460;11.868;2023-04-21T00:02:24;26.67;;;16.63;;
6358;SDS011;3212;51.460;11.868;2023-04-21T00:05:49;26.60;;;15.07;;
6358;SDS011;3212;51.460;11.868;2023-04-21T00:09:13;30.13;;;16.83;;
6358;SDS011;3212;51.460;11.868;2023-04-21T00:12:37;26.53;;;14.87;;
6358;SDS011;3212;51.460;11.868;2023-04-21T00:16:00;31.37;;;16.30;;
6358;SDS011;3212;51.460;11.868;2023-04-21T00:19:22;26.67;;;15.97;;
6358;SDS011;3212;51.460;11.868;2023-04-21T00:26:18;30.97;;;16.00;;
6358;SDS011;3212;51.460;11.868;2023-04-21T00:29:40;34.50;;;15.70;;
6358;SDS011;3212;51.460;11.868;2023-04-21T00:33:03;33.47;;;16.60;;
6358;SDS011;3212;51.460;11.868;2023-04-21T00:36:26;28.57;;;16.60;;
6358;SDS011;3212;51.460;11.868;2023-04-21T00:39:48;31.77;;;15.90;;
6358;SDS011;3212;51.460;11.868;2023-04-21T00:43:13;28.43;;;16.07;;
6358;SDS011;3212;51.460;11.868;2023-04-21T00:46:35;32.43;;;17.73;;
6358;SDS011;3212;51.460;11.868;2023-04-21T00:49:58;30.97;;;17.43;;
6358;SDS011;3212;51.460;11.868;2023-04-21T00:53:20;29.83;;;16.77;;
6358;SDS011;3212;51.460;11.868;2023-04-21T00:56:43;34.73;;;17.33;;
6358;SDS011;3212;51.460;11.868;2023-04-21T01:00:06;35.37;;;17.30;;
6358;SDS011;3212;51.460;11.868;2023-04-21T01:03:30;32.70;;;16.90;;
6358;SDS011;3212;51.460;11.868;2023-04-21T01:06:53;31.50;;;16.00;;
6358;SDS011;3212;51.460;11.868;2023-04-21T01:10:16;31.63;;;17.43;;
6358;SDS011;3212;51.460;11.868;2023-04-21T01:13:39;31.40;;;17.10;;
6358;SDS011;3212;51.460;11.868;2023-04-21T01:17:01;37.33;;;18.83;;
6358;SDS011;3212;51.460;11.868;2023-04-21T01:20:24;32.20;;;16.67;;
6358;SDS011;3212;51.460;11.868;2023-04-21T01:23:46;38.00;;;17.70;;
6358;SDS011;3212;51.460;11.868;2023-04-21T01:27:09;30.90;;;16.40;;
6358;SDS011;3212;51.460;11.868;2023-04-21T01:30:32;29.80;;;15.80;;
6358;SDS011;3212;51.460;11.868;2023-04-21T01:33:55;37.30;;;16.20;;
6358;SDS011;3212;51.460;11.868;2023-04-21T01:37:19;30.43;;;16.60;;
6358;SDS011;3212;51.460;11.868;2023-04-21T01:40:40;31.10;;;16.20;;
6358;SDS011;3212;51.460;11.868;2023-04-21T01:44:04;26.80;;;15.37;;
6358;SDS011;3212;51.460;11.868;2023-04-21T01:47:26;26.60;;;14.27;;
6358;SDS011;3212;51.460;11.868;2023-04-21T01:50:49;25.37;;;13.93;;
6358;SDS011;3212;51.460;11.868;2023-04-21T01:54:12;23.63;;;14.17;;
6358;SDS011;3212;51.460;11.868;2023-04-21T01:57:34;24.53;;;14.10;;
6358;SDS011;3212;51.460;11.868;2023-04-21T02:00:57;24.27;;;13.60;;
6358;SDS011;3212;51.460;11.868;2023-04-21T02:04:20;25.40;;;13.53;;
6358;SDS011;3212;51.460;11.868;2023-04-21T02:07:44;26.83;;;13.27;;
6358;SDS011;3212;51.460;11.868;2023-04-21T02:11:06;22.30;;;12.67;;
6358;SDS011;3212;51.460;11.868;2023-04-21T02:14:28;25.27;;;13.23;;
6358;SDS011;3212;51.460;11.868;2023-04-21T02:17:51;26.37;;;13.23;;
6358;SDS011;3212;51.460;11.868;2023-04-21T02:21:14;22.33;;;12.80;;
6358;SDS011;3212;51.460;11.868;2023-04-21T02:24:36;26.03;;;12.27;;
6358;SDS011;3212;51.460;11.868;2023-04-21T02:27:59;26.97;;;12.53;;
6358;SDS011;3212;51.460;11.868;2023-04-21T02:31:22;22.20;;;12.10;;
6358;SDS011;3212;51.460;11.868;2023-04-21T02:34:45;23.20;;;11.83;;
6358;SDS011;3212;51.460;11.868;2023-04-21T02:38:08;21.90;;;12.17;;
6358;SDS011;3212;51.460;11.868;2023-04-21T02:41:31;23.77;;;12.60;;
6358;SDS011;3212;51.460;11.868;2023-04-21T02:44:56;21.80;;;11.40;;
6358;SDS011;3212;51.460;11.868;2023-04-21T02:48:19;27.43;;;12.73;;
6358;SDS011;3212;51.460;11.868;2023-04-21T02:51:42;26.13;;;12.83;;
6358;SDS011;3212;51.460;11.868;2023-04-21T02:55:05;20.00;;;12.30;;
6358;SDS011;3212;51.460;11.868;2023-04-21T02:58:28;25.47;;;13.27;;
6358;SDS011;3212;51.460;11.868;2023-04-21T03:01:51;26.87;;;12.07;;
6358;SDS011;3212;51.460;11.868;2023-04-21T03:05:14;23.13;;;12.40;;
6358;SDS011;3212;51.460;11.868;2023-04-21T03:08:36;26.27;;;12.73;;
6358;SDS011;3212;51.460;11.868;2023-04-21T03:11:59;25.50;;;12.20;;
6358;SDS011;3212;51.460;11.868;2023-04-21T03:15:21;22.53;;;12.47;;
6358;SDS011;3212;51.460;11.868;2023-04-21T03:18:44;23.83;;;12.00;;
6358;SDS011;3212;51.460;11.868;2023-04-21T03:22:06;23.60;;;11.73;;
6358;SDS011;3212;51.460;11.868;2023-04-21T03:25:29;19.77;;;11.90;;
6358;SDS011;3212;51.460;11.868;2023-04-21T03:28:52;21.77;;;12.10;;
6358;SDS011;3212;51.460;11.868;2023-04-21T03:32:15;26.20;;;11.70;;
6358;SDS011;3212;51.460;11.868;2023-04-21T03:35:37;25.40;;;13.20;;
6358;SDS011;3212;51.460;11.868;2023-04-21T03:39:00;17.87;;;11.00;;
6358;SDS011;3212;51.460;11.868;2023-04-21T03:42:25;22.60;;;11.87;;
6358;SDS011;3212;51.460;11.868;2023-04-21T03:45:48;18.70;;;11.90;;
6358;SDS011;3212;51.460;11.868;2023-04-21T03:49:11;22.20;;;11.53;;
6358;SDS011;3212;51.460;11.868;2023-04-21T03:52:34;23.80;;;12.37;;
6358;SDS011;3212;51.460;11.868;2023-04-21T03:55:57;20.07;;;11.47;;
6358;SDS011;3212;51.460;11.868;2023-04-21T03:59:19;21.00;;;11.90;;
6358;SDS011;3212;51.460;11.868;2023-04-21T04:02:42;28.58;;;12.43;;
6358;SDS011;3212;51.460;11.868;2023-04-21T04:06:05;28.57;;;11.63;;
6358;SDS011;3212;51.460;11.868;2023-04-21T04:09:28;19.00;;;10.83;;
6358;SDS011;3212;51.460;11.868;2023-04-21T04:12:51;21.45;;;11.30;;
6358;SDS011;3212;51.460;11.868;2023-04-21T04:16:13;22.07;;;11.43;;
6358;SDS011;3212;51.460;11.868;2023-04-21T04:19:36;23.30;;;10.47;;
6358;SDS011;3212;51.460;11.868;2023-04-21T04:22:59;25.20;;;11.70;;
6358;SDS011;3212;51.460;11.868;2023-04-21T04:26:21;27.83;;;12.40;;
6358;SDS011;3212;51.460;11.868;2023-04-21T04:29:43;24.93;;;12.20;;
6358;SDS011;3212;51.460;11.868;2023-04-21T04:33:06;20.63;;;12.17;;
6358;SDS011;3212;51.460;11.868;2023-04-21T04:36:29;24.90;;;11.70;;
6358;SDS011;3212;51.460;11.868;2023-04-21T04:39:52;25.27;;;11.87;;
6358;SDS011;3212;51.460;11.868;2023-04-21T04:43:15;26.10;;;13.00;;
6358;SDS011;3212;51.460;11.868;2023-04-21T04:46:39;22.53;;;11.87;;
6358;SDS011;3212;51.460;11.868;2023-04-21T04:50:02;23.03;;;12.03;;
6358;SDS011;3212;51.460;11.868;2023-04-21T04:53:24;24.10;;;12.87;;
6358;SDS011;3212;51.460;11.868;2023-04-21T04:56:46;27.13;;;12.07;;
6358;SDS011;3212;51.460;11.868;2023-04-21T05:00:09;18.87;;;11.43;;
6358;SDS011;3212;51.460;11.868;2023-04-21T05:03:32;23.30;;;10.60;;
6358;SDS011;3212;51.460;11.868;2023-04-21T05:06:55;21.23;;;11.77;;
6358;SDS011;3212;51.460;11.868;2023-04-21T05:10:22;19.03;;;10.90;;
6358;SDS011;3212;51.460;11.868;2023-04-21T05:13:46;27.13;;;11.63;;
6358;SDS011;3212;51.460;11.868;2023-04-21T05:17:09;17.67;;;10.27;;
6358;SDS011;3212;51.460;11.868;2023-04-21T05:20:31;15.53;;;10.53;;
6358;SDS011;3212;51.460;11.868;2023-04-21T05:23:54;20.90;;;10.77;;
6358;SDS011;3212;51.460;11.868;2023-04-21T05:27:16;16.13;;;9.50;;
6358;SDS011;3212;51.460;11.868;2023-04-21T05:30:39;19.07;;;9.73;;
6358;SDS011;3212;51.460;11.868;2023-04-21T05:34:02;18.30;;;10.17;;
6358;SDS011;3212;51.460;11.868;2023-04-21T05:37:25;19.23;;;10.17;;
6358;SDS011;3212;51.460;11.868;2023-04-21T05:40:54;15.07;;;9.57;;
6358;SDS011;3212;51.460;11.868;2023-04-21T05:44:17;27.73;;;12.40;;
6358;SDS011;3212;51.460;11.868;2023-04-21T05:47:41;23.13;;;11.20;;
6358;SDS011;3212;51.460;11.868;2023-04-21T05:51:07;22.37;;;14.53;;
6358;SDS011;3212;51.460;11.868;2023-04-21T05:54:31;18.40;;;9.60;;
6358;SDS011;3212;51.460;11.868;2023-04-21T05:57:53;17.02;;;9.82;;
6358;SDS011;3212;51.460;11.868;2023-04-21T06:01:16;19.70;;;10.47;;
6358;SDS011;3212;51.460;11.868;2023-04-21T06:04:38;22.67;;;10.43;;
6358;SDS011;3212;51.460;11.868;2023-04-21T06:08:01;19.58;;;10.75;;
6358;SDS011;3212;51.460;11.868;2023-04-21T06:11:23;24.63;;;10.40;;
6358;SDS011;3212;51.460;11.868;2023-04-21T06:14:46;18.23;;;9.90;;
6358;SDS011;3212;51.460;11.868;2023-04-21T06:18:09;14.43;;;9.87;;
6358;SDS011;3212;51.460;11.868;2023-04-21T06:21:31;23.00;;;10.60;;
6358;SDS011;3212;51.460;11.868;2023-04-21T06:24:56;20.03;;;10.10;;
6358;SDS011;3212;51.460;11.868;2023-04-21T06:28:19;21.02;;;10.18;;
6358;SDS011;3212;51.460;11.868;2023-04-21T06:31:41;25.67;;;10.73;;
6358;SDS011;3212;51.460;11.868;2023-04-21T06:35:04;22.67;;;10.27;;
6358;SDS011;3212;51.460;11.868;2023-04-21T06:38:27;17.33;;;9.63;;
6358;SDS011;3212;51.460;11.868;2023-04-21T06:41:49;17.93;;;10.03;;
6358;SDS011;3212;51.460;11.868;2023-04-21T06:45:13;16.87;;;9.73;;
6358;SDS011;3212;51.460;11.868;2023-04-21T06:48:36;21.93;;;9.70;;
6358;SDS011;3212;51.460;11.868;2023-04-21T06:51:59;18.90;;;9.57;;
6358;SDS011;3212;51.460;11.868;2023-04-21T06:55:22;19.40;;;10.77;;
6358;SDS011;3212;51.460;11.868;2023-04-21T06:58:44;21.80;;;10.10;;
6358;SDS011;3212;51.460;11.868;2023-04-21T07:02:07;17.53;;;9.87;;
6358;SDS011;3212;51.460;11.868;2023-04-21T07:05:31;19.60;;;9.50;;
6358;SDS011;3212;51.460;11.868;2023-04-21T07:08:54;18.07;;;9.00;;
6358;SDS011;3212;51.460;11.868;2023-04-21T07:12:17;19.50;;;9.20;;
6358;SDS011;3212;51.460;11.868;2023-04-21T07:15:39;19.42;;;9.88;;
6358;SDS011;3212;51.460;11.868;2023-04-21T07:19:02;15.97;;;9.03;;
6358;SDS011;3212;51.460;11.868;2023-04-21T07:22:24;24.03;;;9.50;;
6358;SDS011;3212;51.460;11.868;2023-04-21T07:25:47;22.63;;;9.93;;
6358;SDS011;3212;51.460;11.868;2023-04-21T07:29:10;17.40;;;10.00;;
6358;SDS011;3212;51.460;11.868;2023-04-21T07:32:33;19.77;;;9.57;;
6358;SDS011;3212;51.460;11.868;2023-04-21T07:35:55;24.30;;;10.83;;
6358;SDS011;3212;51.460;11.868;2023-04-21T07:39:18;16.20;;;9.83;;
6358;SDS011;3212;51.460;11.868;2023-04-21T07:42:40;20.10;;;9.30;;
6358;SDS011;3212;51.460;11.868;2023-04-21T07:46:03;18.07;;;10.13;;
6358;SDS011;3212;51.460;11.868;2023-04-21T07:49:28;19.03;;;9.10;;
6358;SDS011;3212;51.460;11.868;2023-04-21T07:52:51;20.55;;;9.27;;
6358;SDS011;3212;51.460;11.868;2023-04-21T07:56:13;15.20;;;9.73;;
6358;SDS011;3212;51.460;11.868;2023-04-21T07:59:36;18.60;;;9.90;;
6358;SDS011;3212;51.460;11.868;2023-04-21T08:02:58;19.77;;;9.43;;
6358;SDS011;3212;51.460;11.868;2023-04-21T08:06:21;17.33;;;8.93;;
6358;SDS011;3212;51.460;11.868;2023-04-21T08:09:43;17.33;;;9.30;;
6358;SDS011;3212;51.460;11.868;2023-04-21T08:13:04;19.80;;;9.03;;
6358;SDS011;3212;51.460;11.868;2023-04-21T08:16:26;16.73;;;9.10;;
6358;SDS011;3212;51.460;11.868;2023-04-21T08:19:49;24.30;;;9.33;;
6358;SDS011;3212;51.460;11.868;2023-04-21T08:23:11;15.90;;;8.77;;
6358;SDS011;3212;51.460;11.868;2023-04-21T08:26:35;15.80;;;8.60;;
6358;SDS011;3212;51.460;11.868;2023-04-21T08:29:57;17.27;;;9.23;;
6358;SDS011;3212;51.460;11.868;2023-04-21T08:33:20;16.57;;;8.60;;
6358;SDS011;3212;51.460;11.868;2023-04-21T08:36:43;13.23;;;8.90;;
6358;SDS011;3212;51.460;11.868;2023-04-21T08:40:07;18.20;;;9.43;;
6358;SDS011;3212;51.460;11.868;2023-04-21T08:43:30;17.03;;;8.73;;
6358;SDS011;3212;51.460;11.868;2023-04-21T08:46:52;16.87;;;9.03;;
6358;SDS011;3212;51.460;11.868;2023-04-21T08:50:14;18.20;;;9.00;;
6358;SDS011;3212;51.460;11.868;2023-04-21T08:53:38;12.27;;;8.30;;
6358;SDS011;3212;51.460;11.868;2023-04-21T08:57:00;15.50;;;8.40;;
6358;SDS011;3212;51.460;11.868;2023-04-21T09:00:22;19.07;;;9.60;;
6358;SDS011;3212;51.460;11.868;2023-04-21T09:03:45;18.60;;;8.60;;
6358;SDS011;3212;51.460;11.868;2023-04-21T09:07:07;16.40;;;8.87;;
6358;SDS011;3212;51.460;11.868;2023-04-21T09:10:29;15.03;;;8.40;;
6358;SDS011;3212;51.460;11.868;2023-04-21T09:13:53;14.90;;;7.50;;
6358;SDS011;3212;51.460;11.868;2023-04-21T09:17:14;16.60;;;8.43;;
6358;SDS011;3212;51.460;11.868;2023-04-21T09:20:35;15.10;;;8.30;;
6358;SDS011;3212;51.460;11.868;2023-04-21T09:23:59;16.90;;;8.03;;
6358;SDS011;3212;51.460;11.868;2023-04-21T09:27:21;16.40;;;7.93;;
6358;SDS011;3212;51.460;11.868;2023-04-21T09:30:44;17.00;;;7.30;;
6358;SDS011;3212;51.460;11.868;2023-04-21T09:34:15;13.37;;;7.30;;
6358;SDS011;3212;51.460;11.868;2023-04-21T09:37:31;18.20;;;7.33;;
6358;SDS011;3212;51.460;11.868;2023-04-21T09:40:56;13.53;;;7.50;;
6358;SDS011;3212;51.460;11.868;2023-04-21T09:44:18;11.93;;;7.10;;
6358;SDS011;3212;51.460;11.868;2023-04-21T09:47:41;21.33;;;7.40;;
6358;SDS011;3212;51.460;11.868;2023-04-21T09:51:04;10.83;;;7.33;;
6358;SDS011;3212;51.460;11.868;2023-04-21T09:54:33;15.73;;;7.20;;
6358;SDS011;3212;51.460;11.868;2023-04-21T09:57:58;13.77;;;6.03;;
6358;SDS011;3212;51.460;11.868;2023-04-21T10:01:20;9.97;;;6.50;;
6358;SDS011;3212;51.460;11.868;2023-04-21T10:04:42;10.73;;;6.00;;
6358;SDS011;3212;51.460;11.868;2023-04-21T10:08:05;11.43;;;6.30;;
6358;SDS011;3212;51.460;11.868;2023-04-21T10:11:28;14.47;;;6.30;;
6358;SDS011;3212;51.460;11.868;2023-04-21T10:14:52;9.30;;;5.87;;
6358;SDS011;3212;51.460;11.868;2023-04-21T10:18:17;11.33;;;5.00;;
6358;SDS011;3212;51.460;11.868;2023-04-21T10:21:40;16.10;;;5.20;;
6358;SDS011;3212;51.460;11.868;2023-04-21T10:25:03;12.37;;;5.70;;
6358;SDS011;3212;51.460;11.868;2023-04-21T10:32:30;11.83;;;5.30;;
6358;SDS011;3212;51.460;11.868;2023-04-21T10:43:04;15.27;;;5.63;;
6358;SDS011;3212;51.460;11.868;2023-04-21T10:46:31;8.90;;;5.03;;
6358;SDS011;3212;51.460;11.868;2023-04-21T10:49:55;14.03;;;5.73;;
6358;SDS011;3212;51.460;11.868;2023-04-21T10:53:18;9.07;;;4.70;;
6358;SDS011;3212;51.460;11.868;2023-04-21T10:56:41;10.07;;;5.60;;
6358;SDS011;3212;51.460;11.868;2023-04-21T11:00:04;8.80;;;5.43;;
6358;SDS011;3212;51.460;11.868;2023-04-21T11:03:32;9.40;;;4.97;;
6358;SDS011;3212;51.460;11.868;2023-04-21T11:14:02;9.60;;;4.73;;
6358;SDS011;3212;51.460;11.868;2023-04-21T11:17:25;12.10;;;5.30;;
6358;SDS011;3212;51.460;11.868;2023-04-21T11:20:48;14.07;;;5.17;;
6358;SDS011;3212;51.460;11.868;2023-04-21T11:24:10;7.60;;;4.80;;
6358;SDS011;3212;51.460;11.868;2023-04-21T11:27:33;8.33;;;4.77;;
6358;SDS011;3212;51.460;11.868;2023-04-21T11:30:56;6.97;;;3.60;;
6358;SDS011;3212;51.460;11.868;2023-04-21T11:34:19;8.17;;;3.90;;
6358;SDS011;3212;51.460;11.868;2023-04-21T11:37:41;10.67;;;5.10;;
6358;SDS011;3212;51.460;11.868;2023-04-21T11:41:04;11.37;;;4.77;;
6358;SDS011;3212;51.460;11.868;2023-04-21T11:44:30;9.17;;;4.80;;
6358;SDS011;3212;51.460;11.868;2023-04-21T11:48:09;6.80;;;4.40;;
6358;SDS011;3212;51.460;11.868;2023-04-21T11:51:16;9.83;;;5.20;;
6358;SDS011;3212;51.460;11.868;2023-04-21T11:54:38;11.73;;;5.27;;
6358;SDS011;3212;51.460;11.868;2023-04-21T11:58:00;7.57;;;3.93;;
6358;SDS011;3212;51.460;11.868;2023-04-21T12:01:25;14.00;;;4.57;;
6358;SDS011;3212;51.460;11.868;2023-04-21T12:04:55;9.00;;;4.63;;
6358;SDS011;3212;51.460;11.868;2023-04-21T12:08:13;6.73;;;5.00;;
6358;SDS011;3212;51.460;11.868;2023-04-21T12:11:34;10.73;;;5.37;;
6358;SDS011;3212;51.460;11.868;2023-04-21T12:14:57;9.20;;;4.80;;
6358;SDS011;3212;51.460;11.868;2023-04-21T12:18:19;15.53;;;4.83;;
6358;SDS011;3212;51.460;11.868;2023-04-21T12:21:42;12.33;;;5.40;;
6358;SDS011;3212;51.460;11.868;2023-04-21T12:25:05;8.07;;;5.13;;
6358;SDS011;3212;51.460;11.868;2023-04-21T12:28:28;7.93;;;5.40;;
6358;SDS011;3212;51.460;11.868;2023-04-21T12:31:51;10.97;;;4.83;;
6358;SDS011;3212;51.460;11.868;2023-04-21T12:35:15;10.10;;;5.63;;
6358;SDS011;3212;51.460;11.868;2023-04-21T12:38:37;7.43;;;5.63;;
6358;SDS011;3212;51.460;11.868;2023-04-21T12:42:00;8.23;;;5.07;;
6358;SDS011;3212;51.460;11.868;2023-04-21T12:45:22;10.50;;;4.80;;
6358;SDS011;3212;51.460;11.868;2023-04-21T12:48:45;8.03;;;4.60;;
6358;SDS011;3212;51.460;11.868;2023-04-21T12:52:07;15.17;;;5.33;;
6358;SDS011;3212;51.460;11.868;2023-04-21T12:55:30;6.80;;;4.73;;
6358;SDS011;3212;51.460;11.868;2023-04-21T12:58:53;7.00;;;4.70;;
6358;SDS011;3212;51.460;11.868;2023-04-21T13:02:15;8.60;;;5.03;;
6358;SDS011;3212;51.460;11.868;2023-04-21T13:05:38;8.30;;;4.63;;
6358;SDS011;3212;51.460;11.868;2023-04-21T13:09:00;9.63;;;4.93;;
6358;SDS011;3212;51.460;11.868;2023-04-21T13:12:24;9.87;;;5.03;;
6358;SDS011;3212;51.460;11.868;2023-04-21T13:15:46;7.07;;;4.30;;
6358;SDS011;3212;51.460;11.868;2023-04-21T13:19:08;8.67;;;4.63;;
6358;SDS011;3212;51.460;11.868;2023-04-21T13:22:32;7.50;;;4.93;;
6358;SDS011;3212;51.460;11.868;2023-04-21T13:25:54;10.13;;;5.07;;
6358;SDS011;3212;51.460;11.868;2023-04-21T13:29:16;9.20;;;4.70;;
6358;SDS011;3212;51.460;11.868;2023-04-21T13:32:40;10.60;;;4.97;;
6358;SDS011;3212;51.460;11.868;2023-04-21T13:36:03;7.93;;;4.47;;
6358;SDS011;3212;51.460;11.868;2023-04-21T13:39:26;9.60;;;4.50;;
6358;SDS011;3212;51.460;11.868;2023-04-21T13:42:49;10.93;;;4.63;;
6358;SDS011;3212;51.460;11.868;2023-04-21T13:46:11;6.20;;;4.63;;
6358;SDS011;3212;51.460;11.868;2023-04-21T13:49:34;9.80;;;5.47;;
6358;SDS011;3212;51.460;11.868;2023-04-21T13:52:57;6.33;;;4.30;;
6358;SDS011;3212;51.460;11.868;2023-04-21T13:56:19;8.27;;;4.90;;
6358;SDS011;3212;51.460;11.868;2023-04-21T13:59:42;7.00;;;4.57;;
6358;SDS011;3212;51.460;11.868;2023-04-21T14:03:05;10.60;;;5.00;;
6358;SDS011;3212;51.460;11.868;2023-04-21T14:06:27;5.57;;;4.70;;
6358;SDS011;3212;51.460;11.868;2023-04-21T14:09:50;4.40;;;3.67;;
6358;SDS011;3212;51.460;11.868;2023-04-21T14:13:12;7.43;;;3.93;;
6358;SDS011;3212;51.460;11.868;2023-04-21T14:16:35;8.87;;;4.57;;
6358;SDS011;3212;51.460;11.868;2023-04-21T14:19:58;8.60;;;4.20;;
6358;SDS011;3212;51.460;11.868;2023-04-21T14:23:20;9.50;;;4.50;;
6358;SDS011;3212;51.460;11.868;2023-04-21T14:26:43;9.80;;;4.30;;
6358;SDS011;3212;51.460;11.868;2023-04-21T14:30:06;7.63;;;4.37;;
6358;SDS011;3212;51.460;11.868;2023-04-21T14:33:29;5.67;;;4.20;;
6358;SDS011;3212;51.460;11.868;2023-04-21T14:36:52;11.60;;;4.30;;
6358;SDS011;3212;51.460;11.868;2023-04-21T14:40:16;8.18;;;4.35;;
6358;SDS011;3212;51.460;11.868;2023-04-21T14:43:39;7.53;;;4.27;;
6358;SDS011;3212;51.460;11.868;2023-04-21T14:47:01;9.37;;;4.13;;
6358;SDS011;3212;51.460;11.868;2023-04-21T14:50:24;8.90;;;4.07;;
6358;SDS011;3212;51.460;11.868;2023-04-21T14:53:47;9.53;;;3.70;;
6358;SDS011;3212;51.460;11.868;2023-04-21T14:57:09;6.40;;;4.10;;
6358;SDS011;3212;51.460;11.868;2023-04-21T15:00:32;10.00;;;4.10;;
6358;SDS011;3212;51.460;11.868;2023-04-21T15:03:55;7.73;;;4.03;;
6358;SDS011;3212;51.460;11.868;2023-04-21T15:07:17;13.73;;;4.10;;
6358;SDS011;3212;51.460;11.868;2023-04-21T15:10:40;4.73;;;3.80;;
6358;SDS011;3212;51.460;11.868;2023-04-21T15:14:03;8.20;;;3.60;;
6358;SDS011;3212;51.460;11.868;2023-04-21T15:17:25;8.40;;;3.85;;
6358;SDS011;3212;51.460;11.868;2023-04-21T15:20:48;9.07;;;4.20;;
6358;SDS011;3212;51.460;11.868;2023-04-21T15:24:12;7.57;;;3.77;;
6358;SDS011;3212;51.460;11.868;2023-04-21T15:27:35;9.00;;;3.73;;
6358;SDS011;3212;51.460;11.868;2023-04-21T15:30:58;7.33;;;3.77;;
6358;SDS011;3212;51.460;11.868;2023-04-21T15:34:22;6.13;;;3.83;;
6358;SDS011;3212;51.460;11.868;2023-04-21T15:37:45;6.67;;;3.67;;
6358;SDS011;3212;51.460;11.868;2023-04-21T15:41:07;6.37;;;3.77;;
6358;SDS011;3212;51.460;11.868;2023-04-21T15:44:29;8.30;;;4.03;;
6358;SDS011;3212;51.460;11.868;2023-04-21T15:47:52;8.23;;;3.80;;
6358;SDS011;3212;51.460;11.868;2023-04-21T15:51:15;10.67;;;4.07;;
6358;SDS011;3212;51.460;11.868;2023-04-21T15:54:37;8.57;;;4.10;;
6358;SDS011;3212;51.460;11.868;2023-04-21T15:58:00;5.20;;;3.50;;
6358;SDS011;3212;51.460;11.868;2023-04-21T16:01:23;6.50;;;3.80;;
6358;SDS011;3212;51.460;11.868;2023-04-21T16:04:45;9.73;;;3.50;;
6358;SDS011;3212;51.460;11.868;2023-04-21T16:08:08;6.20;;;3.10;;
6358;SDS011;3212;51.460;11.868;2023-04-21T16:11:31;6.27;;;3.60;;
6358;SDS011;3212;51.460;11.868;2023-04-21T16:14:53;3.97;;;3.60;;
6358;SDS011;3212;51.460;11.868;2023-04-21T16:18:16;7.03;;;4.30;;
6358;SDS011;3212;51.460;11.868;2023-04-21T16:21:38;7.60;;;3.73;;
6358;SDS011;3212;51.460;11.868;2023-04-21T16:25:00;6.70;;;4.10;;
6358;SDS011;3212;51.460;11.868;2023-04-21T16:28:23;7.60;;;4.50;;
6358;SDS011;3212;51.460;11.868;2023-04-21T16:31:46;10.13;;;4.40;;
6358;SDS011;3212;51.460;11.868;2023-04-21T16:35:10;6.40;;;4.00;;
6358;SDS011;3212;51.460;11.868;2023-04-21T16:38:33;7.23;;;4.13;;
6358;SDS011;3212;51.460;11.868;2023-04-21T16:41:56;8.23;;;4.40;;
6358;SDS011;3212;51.460;11.868;2023-04-21T16:45:19;6.80;;;4.50;;
6358;SDS011;3212;51.460;11.868;2023-04-21T16:48:41;8.30;;;3.70;;
6358;SDS011;3212;51.460;11.868;2023-04-21T16:52:04;7.43;;;4.37;;
6358;SDS011;3212;51.460;11.868;2023-04-21T16:55:27;10.73;;;4.70;;
6358;SDS011;3212;51.460;11.868;2023-04-21T16:58:50;6.33;;;4.20;;
6358;SDS011;3212;51.460;11.868;2023-04-21T17:02:12;14.40;;;4.53;;
6358;SDS011;3212;51.460;11.868;2023-04-21T17:05:35;6.17;;;3.80;;
6358;SDS011;3212;51.460;11.868;2023-04-21T17:08:58;6.40;;;4.30;;
6358;SDS011;3212;51.460;11.868;2023-04-21T17:12:21;7.60;;;4.57;;
6358;SDS011;3212;51.460;11.868;2023-04-21T17:15:43;7.37;;;4.77;;
6358;SDS011;3212;51.460;11.868;2023-04-21T17:19:05;5.70;;;4.50;;
6358;SDS011;3212;51.460;11.868;2023-04-21T17:22:28;9.40;;;5.20;;
6358;SDS011;3212;51.460;11.868;2023-04-21T17:25:50;12.30;;;5.10;;
6358;SDS011;3212;51.460;11.868;2023-04-21T17:29:13;8.90;;;4.47;;
6358;SDS011;3212;51.460;11.868;2023-04-21T17:32:35;7.03;;;4.13;;
6358;SDS011;3212;51.460;11.868;2023-04-21T17:36:00;12.10;;;4.53;;
6358;SDS011;3212;51.460;11.868;2023-04-21T17:39:25;9.00;;;4.60;;
6358;SDS011;3212;51.460;11.868;2023-04-21T17:42:49;9.73;;;4.27;;
6358;SDS011;3212;51.460;11.868;2023-04-21T17:46:12;8.17;;;5.10;;
6358;SDS011;3212;51.460;11.868;2023-04-21T17:49:35;8.50;;;4.97;;
6358;SDS011;3212;51.460;11.868;2023-04-21T17:52:57;9.90;;;5.10;;
6358;SDS011;3212;51.460;11.868;2023-04-21T17:56:20;11.70;;;5.03;;
6358;SDS011;3212;51.460;11.868;2023-04-21T17:59:42;8.43;;;5.30;;
6358;SDS011;3212;51.460;11.868;2023-04-21T18:03:04;7.40;;;5.40;;
6358;SDS011;3212;51.460;11.868;2023-04-21T18:06:28;8.83;;;5.30;;
6358;SDS011;3212;51.460;11.868;2023-04-21T18:09:51;7.10;;;5.10;;
6358;SDS011;3212;51.460;11.868;2023-04-21T18:13:13;6.87;;;4.93;;
6358;SDS011;3212;51.460;11.868;2023-04-21T18:16:36;8.07;;;5.20;;
6358;SDS011;3212;51.460;11.868;2023-04-21T18:19:59;10.30;;;5.93;;
6358;SDS011;3212;51.460;11.868;2023-04-21T18:23:22;7.23;;;5.00;;
6358;SDS011;3212;51.460;11.868;2023-04-21T18:26:50;6.10;;;4.70;;
6358;SDS011;3212;51.460;11.868;2023-04-21T18:30:26;6.20;;;5.10;;
6358;SDS011;3212;51.460;11.868;2023-04-21T18:33:49;10.50;;;5.17;;
6358;SDS011;3212;51.460;11.868;2023-04-21T18:37:13;11.17;;;5.30;;
6358;SDS011;3212;51.460;11.868;2023-04-21T18:40:35;8.30;;;5.60;;
6358;SDS011;3212;51.460;11.868;2023-04-21T18:43:59;12.53;;;6.10;;
6358;SDS011;3212;51.460;11.868;2023-04-21T18:47:22;8.47;;;5.60;;
6358;SDS011;3212;51.460;11.868;2023-04-21T18:50:45;8.30;;;5.90;;
6358;SDS011;3212;51.460;11.868;2023-04-21T18:54:07;9.70;;;5.70;;
6358;SDS011;3212;51.460;11.868;2023-04-21T18:57:30;10.80;;;6.10;;
6358;SDS011;3212;51.460;11.868;2023-04-21T19:00:53;8.33;;;5.63;;
6358;SDS011;3212;51.460;11.868;2023-04-21T19:04:15;10.50;;;7.17;;
6358;SDS011;3212;51.460;11.868;2023-04-21T19:07:39;13.30;;;6.70;;
6358;SDS011;3212;51.460;11.868;2023-04-21T19:11:02;11.03;;;5.63;;
6358;SDS011;3212;51.460;11.868;2023-04-21T19:14:24;11.60;;;6.20;;
6358;SDS011;3212;51.460;11.868;2023-04-21T19:17:47;11.10;;;6.33;;
6358;SDS011;3212;51.460;11.868;2023-04-21T19:21:10;11.43;;;6.23;;
6358;SDS011;3212;51.460;11.868;2023-04-21T19:24:32;8.87;;;6.30;;
6358;SDS011;3212;51.460;11.868;2023-04-21T19:27:55;9.13;;;6.47;;
6358;SDS011;3212;51.460;11.868;2023-04-21T19:31:18;8.13;;;5.80;;
6358;SDS011;3212;51.460;11.868;2023-04-21T19:34:40;8.00;;;5.97;;
6358;SDS011;3212;51.460;11.868;2023-04-21T19:38:03;13.93;;;6.83;;
6358;SDS011;3212;51.460;11.868;2023-04-21T19:41:26;9.60;;;6.40;;
6358;SDS011;3212;51.460;11.868;2023-04-21T19:44:49;9.63;;;6.40;;
6358;SDS011;3212;51.460;11.868;2023-04-21T19:48:12;11.80;;;6.77;;
6358;SDS011;3212;51.460;11.868;2023-04-21T19:51:34;12.10;;;6.90;;
6358;SDS011;3212;51.460;11.868;2023-04-21T19:54:56;12.07;;;7.10;;
6358;SDS011;3212;51.460;11.868;2023-04-21T19:58:19;12.00;;;7.50;;
6358;SDS011;3212;51.460;11.868;2023-04-21T20:01:42;13.57;;;7.20;;
6358;SDS011;3212;51.460;11.868;2023-04-21T20:05:05;11.53;;;7.57;;
6358;SDS011;3212;51.460;11.868;2023-04-21T20:08:28;13.23;;;7.27;;
6358;SDS011;3212;51.460;11.868;2023-04-21T20:11:52;11.93;;;7.33;;
6358;SDS011;3212;51.460;11.868;2023-04-21T20:15:15;11.73;;;7.33;;
6358;SDS011;3212;51.460;11.868;2023-04-21T20:18:38;11.33;;;8.07;;
6358;SDS011;3212;51.460;11.868;2023-04-21T20:22:00;14.40;;;9.53;;
6358;SDS011;3212;51.460;11.868;2023-04-21T20:25:23;16.63;;;10.50;;
6358;SDS011;3212;51.460;11.868;2023-04-21T20:28:45;17.93;;;9.30;;
6358;SDS011;3212;51.460;11.868;2023-04-21T20:32:07;15.40;;;9.80;;
6358;SDS011;3212;51.460;11.868;2023-04-21T20:35:31;14.53;;;9.40;;
6358;SDS011;3212;51.460;11.868;2023-04-21T20:38:54;10.87;;;8.50;;
6358;SDS011;3212;51.460;11.868;2023-04-21T20:42:16;16.17;;;8.97;;
6358;SDS011;3212;51.460;11.868;2023-04-21T20:45:38;13.17;;;7.90;;